.
WxDataArchive / Data Records for 2007-11-20
2007-11-19 November 2007 2007-11-21

Data Records for Tuesday, 20 November 2007

Time	Temp	Chill	HIndex	Humid	Dewpt	 Wind 	HiWind	WindDir	Rain 	Barom 
-----	----	-----	------	-----	-----	------	------	-------	-----	----- 
00:00	59.8	59.8	59.8	82	54.3	4	11	248	0.00	29.879 
00:05	59.8	59.8	59.8	82	54.3	4	12	248	0.00	29.878 
00:10	59.8	59.8	59.8	82	54.3	3	9	248	0.00	29.877 
00:15	59.8	59.8	59.8	82	54.3	4	12	248	0.00	29.876 
00:20	59.8	59.8	59.8	82	54.3	4	12	248	0.00	29.876 
00:25	59.8	59.8	59.8	82	54.3	4	10	270	0.00	29.875 
00:30	59.8	59.8	59.8	82	54.3	5	11	248	0.00	29.876 
00:35	59.9	59.9	59.9	82	54.4	5	11	270	0.00	29.872 
00:40	59.9	59.9	59.9	81	54.1	4	11	248	0.00	29.875 
00:45	59.9	59.9	59.9	81	54.1	5	13	248	0.00	29.874 
00:50	60.1	60.1	60.1	81	54.2	5	17	248	0.00	29.873 
00:55	60.1	60.1	60.1	81	54.2	4	10	248	0.00	29.874 
01:00	59.9	59.9	59.9	81	54.1	4	9	248	0.00	29.874 
01:05	59.9	59.9	59.9	82	54.4	5	11	248	0.00	29.872 
01:10	59.9	59.9	59.9	81	54.1	5	14	248	0.00	29.872 
01:15	59.9	59.9	59.9	82	54.4	4	9	248	0.00	29.868 
01:20	59.9	59.9	59.9	82	54.4	5	10	248	0.00	29.867 
01:25	59.9	59.9	59.9	82	54.4	4	12	248	0.00	29.866 
01:30	59.9	59.9	59.9	82	54.4	4	11	248	0.00	29.863 
01:35	59.8	59.8	59.8	82	54.3	5	12	248	0.00	29.864 
01:40	59.8	59.8	59.8	82	54.3	4	14	248	0.00	29.864 
01:45	59.8	59.8	59.8	83	54.6	4	10	248	0.00	29.864 
01:50	59.8	59.8	59.8	83	54.6	4	13	248	0.00	29.864 
01:55	59.8	59.8	59.8	83	54.6	4	11	248	0.00	29.864 
02:00	59.8	59.8	59.8	83	54.6	4	10	248	0.00	29.863 
02:05	59.8	59.8	59.8	83	54.6	3	7	248	0.00	29.863 
02:10	59.8	59.8	59.8	83	54.6	3	7	248	0.00	29.863 
02:15	59.8	59.8	59.8	83	54.6	3	7	248	0.00	29.864 
02:20	59.8	59.8	59.8	83	54.6	3	7	248	0.00	29.868 
02:25	59.8	59.8	59.8	83	54.6	5	11	248	0.00	29.869 
02:30	59.8	59.8	59.8	83	54.6	3	9	248	0.00	29.867 
02:35	59.8	59.8	59.8	83	54.6	3	7	248	0.00	29.870 
02:40	59.8	59.8	59.8	83	54.6	4	9	248	0.00	29.872 
02:45	59.8	59.8	59.8	83	54.6	3	6	270	0.00	29.873 
02:50	59.8	59.8	59.8	84	55.0	3	7	248	0.00	29.876 
02:55	59.8	59.8	59.8	83	54.6	5	9	248	0.00	29.877 
03:00	59.8	59.8	59.8	84	55.0	2	7	248	0.00	29.878 
03:05	59.8	59.8	59.8	84	55.0	3	7	248	0.00	29.877 
03:10	59.8	59.8	59.8	84	55.0	3	7	248	0.00	29.878 
03:15	59.9	59.9	59.9	84	55.0	4	11	248	0.00	29.878 
03:20	59.9	59.9	59.9	84	55.0	3	11	248	0.00	29.877 
03:25	59.9	59.9	59.9	84	55.0	3	6	248	0.00	29.880 
03:30	59.9	59.9	59.9	81	54.1	4	10	248	0.00	29.877 
03:35	60.1	60.1	60.1	84	55.2	4	12	248	0.00	29.881 
03:40	60.1	60.1	60.1	84	55.2	3	6	248	0.00	29.881 
03:45	59.9	59.9	59.9	84	55.0	3	6	248	0.00	29.879 
03:50	60.1	60.1	60.1	84	55.2	4	11	248	0.00	29.880 
03:55	60.1	60.1	60.1	84	55.2	3	9	248	0.00	29.881 
04:00	60.1	60.1	60.1	84	55.2	4	9	248	0.00	29.882 
04:05	60.1	60.1	60.1	84	55.2	3	9	248	0.00	29.885 
04:10	60.1	60.1	60.1	84	55.2	3	10	248	0.00	29.886 
04:15	60.1	60.1	60.1	84	55.2	4	11	248	0.00	29.886 
04:20	60.1	60.1	60.1	84	55.2	4	10	248	0.00	29.888 
04:25	60.1	60.1	60.1	84	55.2	3	6	248	0.00	29.886 
04:30	60.1	60.1	60.1	84	55.2	2	6	248	0.00	29.890 
04:35	59.9	59.9	59.9	84	55.0	2	6	248	0.00	29.890 
04:40	59.9	59.9	59.9	84	55.0	3	7	248	0.00	29.889 
04:45	59.9	59.9	59.9	84	55.0	2	4	248	0.00	29.889 
04:50	59.9	59.9	59.9	84	55.0	3	5	248	0.00	29.889 
04:55	59.9	59.9	59.9	84	55.0	3	6	248	0.00	29.891 
05:00	59.9	59.9	59.9	84	55.0	2	6	248	0.00	29.891 
05:05	59.9	59.9	59.9	84	55.0	4	10	248	0.00	29.890 
05:10	59.9	59.9	59.9	84	55.0	2	5	248	0.00	29.891 
05:15	59.8	59.8	59.8	84	55.0	3	9	248	0.00	29.892 
05:20	59.8	59.8	59.8	85	55.3	3	8	248	0.00	29.898 
05:25	59.8	59.8	59.8	85	55.3	3	11	248	0.00	29.901 
05:30	59.8	59.8	59.8	85	55.3	4	10	248	0.00	29.901 
05:35	59.8	59.8	59.8	85	55.3	5	11	248	0.00	29.900 
05:40	59.8	59.8	59.8	85	55.3	3	9	248	0.00	29.900 
05:45	59.8	59.8	59.8	85	55.3	3	13	248	0.00	29.902 
05:50	59.8	59.8	59.8	85	55.3	4	9	248	0.00	29.901 
05:55	59.8	59.8	59.8	85	55.3	3	9	248	0.00	29.901 
06:00	59.8	59.8	59.8	85	55.3	3	6	248	0.00	29.901 
06:05	59.8	59.8	59.8	85	55.3	2	5	248	0.00	29.905 
06:10	59.8	59.8	59.8	85	55.3	3	6	248	0.00	29.905 
06:15	59.6	59.6	59.6	85	55.1	2	5	248	0.00	29.906 
06:20	59.6	59.6	59.6	85	55.1	2	10	248	0.00	29.906 
06:25	59.6	59.6	59.6	85	55.1	2	5	248	0.00	29.907 
06:30	59.5	59.5	59.5	85	55.0	3	7	248	0.00	29.908 
06:35	59.5	59.5	59.5	86	55.3	3	7	248	0.00	29.907 
06:40	59.5	59.5	59.5	86	55.3	1	4	248	0.00	29.907 
06:45	59.3	59.3	59.3	86	55.1	1	5	248	0.00	29.910 
06:50	59.3	59.3	59.3	86	55.1	1	3	248	0.00	29.913 
06:55	59.3	59.3	59.3	86	55.1	1	5	248	0.00	29.913 
07:00	59.2	59.2	59.2	86	55.0	1	4	248	0.00	29.920 
07:05	59.2	59.2	59.2	87	55.3	2	6	248	0.00	29.921 
07:10	59.2	59.2	59.2	87	55.3	2	6	270	0.00	29.921 
07:15	59.2	59.2	59.2	87	55.3	3	6	248	0.00	29.922 
07:20	59.2	59.2	59.2	87	55.3	2	6	248	0.00	29.924 
07:25	59.0	59.0	59.0	87	55.1	2	6	248	0.00	29.926 
07:30	59.0	59.0	59.0	87	55.1	1	3	248	0.00	29.924 
07:35	59.0	59.0	59.0	87	55.1	2	6	270	0.00	29.925 
07:40	59.0	59.0	59.0	87	55.1	3	7	248	0.00	29.928 
07:45	59.0	59.0	59.0	87	55.1	2	7	248	0.00	29.929 
07:50	59.2	59.2	59.2	87	55.3	2	6	248	0.00	29.933 
07:55	59.2	59.2	59.2	87	55.3	3	9	248	0.00	29.935 
08:00	59.2	59.2	59.2	87	55.3	2	6	248	0.00	29.936 
08:05	59.2	59.2	59.2	87	55.3	2	4	248	0.00	29.935 
08:10	59.2	59.2	59.2	87	55.3	3	9	248	0.00	29.936 
08:15	59.2	59.2	59.2	87	55.3	1	6	270	0.00	29.936 
08:20	59.2	59.2	59.2	87	55.3	2	5	248	0.00	29.936 
08:25	59.2	59.2	59.2	87	55.3	2	6	270	0.00	29.937 
08:30	59.3	59.3	59.3	87	55.4	3	7	248	0.00	29.937 
08:35	59.3	59.3	59.3	87	55.4	2	6	248	0.00	29.937 
08:40	59.3	59.3	59.3	87	55.4	3	5	248	0.00	29.937 
08:45	59.3	59.3	59.3	87	55.4	3	7	248	0.00	29.938 
08:50	59.3	59.3	59.3	86	55.1	3	7	248	0.00	29.941 
08:55	59.3	59.3	59.3	86	55.1	3	6	248	0.00	29.944 
09:00	59.3	59.3	59.3	87	55.4	3	7	248	0.00	29.946 
09:05	59.3	59.3	59.3	87	55.4	2	6	248	0.00	29.947 
09:10	59.3	59.3	59.3	86	55.1	2	7	248	0.00	29.947 
09:15	59.3	59.3	59.3	86	55.1	1	5	248	0.00	29.946 
09:20	59.3	59.3	59.3	86	55.1	1	7	248	0.00	29.948 
09:25	59.3	59.3	59.3	87	55.4	1	4	248	0.00	29.948 
09:30	59.5	59.5	59.5	86	55.3	1	4	248	0.00	29.947 
09:35	59.5	59.5	59.5	86	55.3	1	4	248	0.00	29.946 
09:40	59.5	59.5	59.5	86	55.3	2	6	248	0.00	29.946 
09:45	59.5	59.5	59.5	86	55.3	1	4	248	0.00	29.947 
09:50	59.5	59.5	59.5	86	55.3	2	6	248	0.00	29.946 
09:55	59.5	59.5	59.5	86	55.3	2	7	248	0.00	29.947 
10:00	59.5	59.5	59.5	86	55.3	1	5	248	0.00	29.948 
10:05	59.5	59.5	59.5	86	55.3	2	7	248	0.00	29.950 
10:10	59.6	59.6	59.6	86	55.4	2	6	270	0.00	29.952 
10:15	59.6	59.6	59.6	86	55.4	1	5	248	0.00	29.949 
10:20	59.6	59.6	59.6	86	55.4	1	4	248	0.00	29.949 
10:25	59.8	59.8	59.8	86	55.6	1	4	248	0.00	29.949 
10:30	59.8	59.8	59.8	85	55.3	1	3	248	0.00	29.949 
10:35	59.9	59.9	59.9	85	55.4	1	5	248	0.00	29.950 
10:40	59.9	59.9	59.9	85	55.4	1	2	248	0.00	29.949 
10:45	60.1	60.1	60.1	85	55.6	1	5	248	0.00	29.949 
10:50	60.2	60.2	60.2	85	55.7	1	4	270	0.00	29.949 
10:55	60.2	60.2	60.2	84	55.3	2	5	248	0.00	29.949 
11:00	60.2	60.2	60.2	84	55.3	1	3	248	0.00	29.950 
11:05	60.2	60.2	60.2	84	55.3	1	4	248	0.00	29.948 
11:10	60.2	60.2	60.2	84	55.3	1	4	248	0.00	29.949 
11:15	60.1	60.1	60.1	84	55.2	1	4	248	0.00	29.949 
11:20	60.2	60.2	60.2	84	55.3	1	5	248	0.00	29.949 
11:25	60.2	60.2	60.2	84	55.3	1	3	248	0.00	29.947 
11:30	60.2	60.2	60.2	84	55.3	0	2	248	0.00	29.947 
11:35	60.2	60.2	60.2	84	55.3	0	2	292	0.00	29.947 
11:40	60.2	60.2	60.2	84	55.3	1	4	248	0.00	29.947 
11:45	60.2	60.2	60.2	84	55.3	1	3	248	0.00	29.946 
11:50	60.2	60.2	60.2	85	55.7	0	3	248	0.00	29.943 
11:55	60.1	60.1	60.1	84	55.2	1	5	248	0.00	29.939 
12:00	60.1	60.1	60.1	85	55.6	0	2	270	0.00	29.934 
12:05	60.1	60.1	60.1	85	55.6	1	3	248	0.00	29.932 
12:10	60.1	60.1	60.1	85	55.6	1	5	248	0.00	29.930 
12:15	60.2	60.2	60.2	85	55.7	1	5	248	0.00	29.926 
12:20	60.4	60.4	60.4	85	55.9	2	5	248	0.00	29.927 
12:25	60.4	60.4	60.4	84	55.5	2	6	248	0.00	29.923 
12:30	60.2	60.2	60.2	85	55.7	2	6	248	0.00	29.918 
12:35	60.2	60.2	60.2	85	55.7	2	5	248	0.00	29.916 
12:40	60.1	60.1	60.1	85	55.6	2	7	248	0.00	29.916 
12:45	60.2	60.2	60.2	85	55.7	2	6	248	0.00	29.914 
12:50	60.2	60.2	60.2	85	55.7	1	4	270	0.00	29.915 
12:55	60.2	60.2	60.2	85	55.7	1	5	248	0.00	29.915 
13:00	60.2	60.2	60.2	85	55.7	0	2	248	0.00	29.915 
13:05	60.4	60.4	60.4	85	55.9	0	2	248	0.00	29.913 
13:10	60.4	60.4	60.4	85	55.9	1	3	248	0.00	29.913 
13:15	60.2	60.2	60.2	85	55.7	1	3	270	0.00	29.914 
13:20	60.2	60.2	60.2	85	55.7	0	2	248	0.00	29.911 
13:25	60.4	60.4	60.4	85	55.9	1	3	248	0.00	29.908 
13:30	60.4	60.4	60.4	85	55.9	1	2	248	0.00	29.903 
13:35	60.4	60.4	60.4	85	55.9	0	2	248	0.00	29.904 
13:40	60.4	60.4	60.4	85	55.9	0	2	248	0.00	29.903 
13:45	60.4	60.4	60.4	85	55.9	0	3	248	0.00	29.902 
13:50	60.4	60.4	60.4	85	55.9	1	4	248	0.00	29.901 
13:55	60.4	60.4	60.4	85	55.9	0	3	248	0.00	29.899 
14:00	60.5	60.5	60.5	85	56.0	0	1	248	0.00	29.899 
14:05	60.5	60.5	60.5	85	56.0	0	2	248	0.00	29.898 
14:10	60.5	60.5	60.5	85	56.0	0	1	248	0.00	29.898 
14:15	60.5	60.5	60.5	85	56.0	1	3	248	0.00	29.898 
14:20	60.7	60.7	60.7	85	56.2	0	2	248	0.00	29.897 
14:25	60.7	60.7	60.7	85	56.2	0	1	248	0.00	29.898 
14:30	60.7	60.7	60.7	85	56.2	0	1	248	0.00	29.895 
14:35	60.7	60.7	60.7	85	56.2	0	0	---	0.00	29.889 
14:40	60.9	60.9	60.9	85	56.4	0	0	---	0.00	29.887 
14:45	60.9	60.9	60.9	85	56.4	0	0	---	0.00	29.887 
14:50	60.9	60.9	60.9	85	56.4	0	1	248	0.00	29.884 
14:55	60.9	60.9	60.9	85	56.4	0	1	248	0.00	29.883 
15:00	60.9	60.9	60.9	85	56.4	0	1	248	0.00	29.883 
15:05	60.9	60.9	60.9	85	56.4	0	0	---	0.00	29.883 
15:10	60.9	60.9	60.9	85	56.4	0	1	248	0.00	29.883 
15:15	60.9	60.9	60.9	85	56.4	0	2	248	0.00	29.882 
15:20	60.9	60.9	60.9	85	56.4	0	1	248	0.00	29.881 
15:25	61.0	61.0	61.0	85	56.5	0	2	248	0.00	29.881 
15:30	61.0	61.0	61.0	85	56.5	0	2	248	0.00	29.881 
15:35	61.0	61.0	61.0	85	56.5	1	3	248	0.00	29.882 
15:40	61.0	61.0	61.0	85	56.5	0	2	248	0.00	29.882 
15:45	61.2	61.2	61.2	85	56.6	1	4	248	0.00	29.880 
15:50	61.2	61.2	61.2	85	56.6	1	4	248	0.00	29.879 
15:55	61.2	61.2	61.2	84	56.3	1	5	270	0.00	29.878 
16:00	61.2	61.2	61.2	84	56.3	1	5	270	0.00	29.875 
16:05	61.2	61.2	61.2	85	56.6	1	4	270	0.00	29.873 
16:10	61.0	61.0	61.0	85	56.5	1	2	270	0.00	29.871 
16:15	61.0	61.0	61.0	85	56.5	1	7	225	0.00	29.872 
16:20	61.0	61.0	61.0	85	56.5	1	5	248	0.00	29.873 
16:25	60.9	60.9	60.9	85	56.4	1	6	270	0.00	29.874 
16:30	60.9	60.9	60.9	85	56.4	1	7	270	0.00	29.870 
16:35	60.9	60.9	60.9	85	56.4	1	5	270	0.00	29.868 
16:40	60.9	60.9	60.9	85	56.4	1	6	248	0.00	29.868 
16:45	60.9	60.9	60.9	85	56.4	1	6	248	0.00	29.867 
16:50	60.7	60.7	60.7	85	56.2	0	4	248	0.00	29.866 
16:55	60.7	60.7	60.7	85	56.2	1	4	202	0.00	29.864 
17:00	60.7	60.7	60.7	85	56.2	0	5	225	0.00	29.862 
17:05	60.5	60.5	60.5	86	56.3	0	3	225	0.00	29.861 
17:10	60.4	60.4	60.4	86	56.2	0	2	315	0.00	29.861 
17:15	60.4	60.4	60.4	86	56.2	0	3	338	0.00	29.860 
17:20	60.2	60.2	60.2	87	56.3	1	3	225	0.00	29.858 
17:25	60.2	60.2	60.2	87	56.3	1	5	45	0.00	29.857 
17:30	60.2	60.2	60.2	87	56.3	1	3	90	0.00	29.858 
17:35	60.2	60.2	60.2	87	56.3	1	3	270	0.00	29.858 
17:40	60.2	60.2	60.2	87	56.3	0	2	158	0.00	29.861 
17:45	60.2	60.2	60.2	87	56.3	0	3	270	0.00	29.859 
17:50	60.1	60.1	60.1	87	56.2	0	2	270	0.00	29.859 
17:55	60.1	60.1	60.1	87	56.2	0	3	270	0.00	29.858 
18:00	60.1	60.1	60.1	87	56.2	0	1	270	0.00	29.860 
18:05	60.1	60.1	60.1	87	56.2	0	2	270	0.00	29.862 
18:10	60.1	60.1	60.1	87	56.2	0	2	0	0.00	29.864 
18:15	60.1	60.1	60.1	87	56.2	0	1	0	0.00	29.864 
18:20	59.9	59.9	59.9	87	56.0	0	1	0	0.00	29.866 
18:25	59.9	59.9	59.9	87	56.0	0	1	0	0.00	29.867 
18:30	59.9	59.9	59.9	87	56.0	0	1	0	0.00	29.868 
18:35	59.9	59.9	59.9	87	56.0	0	1	0	0.00	29.869 
18:40	59.9	59.9	59.9	87	56.0	0	0	---	0.00	29.869 
18:45	59.8	59.8	59.8	87	55.9	0	1	0	0.00	29.871 
18:50	59.6	59.6	59.6	87	55.7	0	2	0	0.00	29.875 
18:55	59.6	59.6	59.6	87	55.7	0	1	0	0.00	29.880 
19:00	59.6	59.6	59.6	87	55.7	0	2	0	0.00	29.883 
19:05	59.6	59.6	59.6	88	56.0	0	1	248	0.00	29.883 
19:10	59.6	59.6	59.6	88	56.0	0	0	---	0.00	29.884 
19:15	59.5	59.5	59.5	88	55.9	0	0	---	0.00	29.884 
19:20	59.5	59.5	59.5	88	55.9	0	1	248	0.00	29.884 
19:25	59.5	59.5	59.5	88	55.9	0	1	248	0.00	29.883 
19:30	59.3	59.3	59.3	88	55.7	0	0	---	0.00	29.881 
19:35	59.3	59.3	59.3	88	55.7	0	1	248	0.00	29.882 
19:40	59.2	59.2	59.2	88	55.6	0	0	---	0.00	29.883 
19:45	59.2	59.2	59.2	88	55.6	0	0	---	0.00	29.884 
19:50	59.2	59.2	59.2	88	55.6	0	1	248	0.00	29.885 
19:55	59.0	59.0	59.0	88	55.4	0	1	248	0.00	29.886 
20:00	59.0	59.0	59.0	88	55.4	0	1	248	0.00	29.886 
20:05	59.0	59.0	59.0	88	55.4	0	0	---	0.00	29.885 
20:10	58.9	58.9	58.9	88	55.3	0	0	---	0.00	29.885 
20:15	58.9	58.9	58.9	88	55.3	0	1	248	0.00	29.886 
20:20	58.9	58.9	58.9	89	55.7	0	0	---	0.00	29.885 
20:25	58.7	58.7	58.7	89	55.5	0	0	---	0.00	29.882 
20:30	58.7	58.7	58.7	89	55.5	0	1	248	0.00	29.878 
20:35	58.6	58.6	58.6	89	55.4	0	1	248	0.00	29.877 
20:40	58.4	58.4	58.4	89	55.2	0	1	248	0.00	29.872 
20:45	58.4	58.4	58.4	89	55.2	0	1	248	0.00	29.872 
20:50	58.4	58.4	58.4	88	54.9	0	2	248	0.00	29.873 
20:55	58.4	58.4	58.4	88	54.9	0	1	248	0.00	29.873 
21:00	58.4	58.4	58.4	88	54.9	0	1	248	0.00	29.873 
21:05	58.4	58.4	58.4	88	54.9	0	1	248	0.00	29.871 
21:10	58.4	58.4	58.4	88	54.9	0	1	248	0.00	29.870 
21:15	58.4	58.4	58.4	88	54.9	0	2	248	0.00	29.870 
21:20	58.4	58.4	58.4	87	54.5	0	2	248	0.00	29.869 
21:25	58.6	58.6	58.6	86	54.4	0	2	248	0.00	29.869 
21:30	58.7	58.7	58.7	86	54.5	0	3	248	0.00	29.870 
21:35	58.9	58.9	58.9	85	54.4	0	3	248	0.00	29.870 
21:40	58.9	58.9	58.9	85	54.4	0	2	248	0.00	29.869 
21:45	59.0	59.0	59.0	84	54.2	0	2	248	0.00	29.869 
21:50	59.0	59.0	59.0	84	54.2	1	3	248	0.00	29.868 
21:55	59.2	59.2	59.2	84	54.4	0	2	248	0.00	29.867 
22:00	59.2	59.2	59.2	83	54.0	1	3	202	0.00	29.865 
22:05	59.2	59.2	59.2	83	54.0	1	4	248	0.00	29.863 
22:10	59.3	59.3	59.3	82	53.8	1	4	270	0.00	29.863 
22:15	59.5	59.5	59.5	81	53.7	1	9	248	0.00	29.862 
22:20	59.6	59.6	59.6	81	53.8	1	3	248	0.00	29.861 
22:25	59.8	59.8	59.8	81	54.0	1	5	225	0.00	29.858 
22:30	59.6	59.6	59.6	81	53.8	2	6	248	0.00	29.855 
22:35	59.6	59.6	59.6	80	53.4	2	5	248	0.00	29.854 
22:40	59.6	59.6	59.6	80	53.4	2	5	248	0.00	29.853 
22:45	59.5	59.5	59.5	81	53.7	1	4	270	0.00	29.852 
22:50	59.2	59.2	59.2	81	53.4	2	5	248	0.00	29.853 
22:55	59.0	59.0	59.0	81	53.2	1	3	248	0.00	29.853 
23:00	58.9	58.9	58.9	82	53.4	1	6	248	0.00	29.851 
23:05	58.7	58.7	58.7	82	53.2	0	3	270	0.00	29.850 
23:10	58.4	58.4	58.4	83	53.3	1	3	270	0.00	29.849 
23:15	58.3	58.3	58.3	84	53.5	1	3	270	0.00	29.847 
23:20	58.3	58.3	58.3	84	53.5	1	4	248	0.00	29.843 
23:25	58.3	58.3	58.3	84	53.5	1	4	225	0.00	29.840 
23:30	58.1	58.1	58.1	84	53.3	1	4	270	0.00	29.839 
23:35	57.8	57.8	57.8	84	53.0	1	4	248	0.00	29.838 
23:40	57.6	57.6	57.6	84	52.8	0	4	248	0.00	29.837 
23:45	57.5	57.5	57.5	85	53.0	1	4	248	0.00	29.836 
23:50	57.2	57.2	57.2	85	52.7	0	2	45	0.00	29.835 
23:55	57.0	57.0	57.0	86	52.9	0	2	22	0.00	29.832 

CoCoRaHS
IN-AL-39
A2 Web Hosting
Creative Commons License
GoDaddy
Look for:

loaded 2017-10-19 20:00:28 • last modified 2010-11-18 10:43:29
Privacy PolicyDisclaimer
• wx.awcolley.com is powered by PmWiki v.2002016 •
• all content (unless otherwise noted) © 2017 A W Colley